sensor_id;sensor_type;location;lat;lon;timestamp;P1;durP1;ratioP1;P2;durP2;ratioP2
62925;SDS011;55732;52.248;-0.844;2023-07-20T00:01:21;3.10;;;1.70;;
62925;SDS011;55732;52.248;-0.844;2023-07-20T00:03:46;4.80;;;2.00;;
62925;SDS011;55732;52.248;-0.844;2023-07-20T00:06:23;3.10;;;1.80;;
62925;SDS011;55732;52.248;-0.844;2023-07-20T00:08:51;1.80;;;1.60;;
62925;SDS011;55732;52.248;-0.844;2023-07-20T00:11:17;1.70;;;1.60;;
62925;SDS011;55732;52.248;-0.844;2023-07-20T00:13:42;5.20;;;1.80;;
62925;SDS011;55732;52.248;-0.844;2023-07-20T00:16:08;1.90;;;1.70;;
62925;SDS011;55732;52.248;-0.844;2023-07-20T00:18:33;4.90;;;1.70;;
62925;SDS011;55732;52.248;-0.844;2023-07-20T00:20:58;3.90;;;1.90;;
62925;SDS011;55732;52.248;-0.844;2023-07-20T00:23:27;2.60;;;1.60;;
62925;SDS011;55732;52.248;-0.844;2023-07-20T00:25:53;5.10;;;1.90;;
62925;SDS011;55732;52.248;-0.844;2023-07-20T00:28:19;2.90;;;1.80;;
62925;SDS011;55732;52.248;-0.844;2023-07-20T00:30:44;3.60;;;1.80;;
62925;SDS011;55732;52.248;-0.844;2023-07-20T00:33:10;2.20;;;2.00;;
62925;SDS011;55732;52.248;-0.844;2023-07-20T00:35:40;3.40;;;1.70;;
62925;SDS011;55732;52.248;-0.844;2023-07-20T00:38:05;5.00;;;2.00;;
62925;SDS011;55732;52.248;-0.844;2023-07-20T00:40:37;2.20;;;1.80;;
62925;SDS011;55732;52.248;-0.844;2023-07-20T00:43:04;3.00;;;1.80;;
62925;SDS011;55732;52.248;-0.844;2023-07-20T00:45:29;2.60;;;1.50;;
62925;SDS011;55732;52.248;-0.844;2023-07-20T00:47:56;3.40;;;1.90;;
62925;SDS011;55732;52.248;-0.844;2023-07-20T00:50:23;4.20;;;2.50;;
62925;SDS011;55732;52.248;-0.844;2023-07-20T00:52:49;3.70;;;2.00;;
62925;SDS011;55732;52.248;-0.844;2023-07-20T00:55:15;6.00;;;2.40;;
62925;SDS011;55732;52.248;-0.844;2023-07-20T00:57:40;4.10;;;2.00;;
62925;SDS011;55732;52.248;-0.844;2023-07-20T01:00:06;5.10;;;2.10;;
62925;SDS011;55732;52.248;-0.844;2023-07-20T01:02:32;7.20;;;2.10;;
62925;SDS011;55732;52.248;-0.844;2023-07-20T01:04:58;4.40;;;2.30;;
62925;SDS011;55732;52.248;-0.844;2023-07-20T01:07:28;2.90;;;1.90;;
62925;SDS011;55732;52.248;-0.844;2023-07-20T01:12:30;3.00;;;2.00;;
62925;SDS011;55732;52.248;-0.844;2023-07-20T01:15:11;2.50;;;1.90;;
62925;SDS011;55732;52.248;-0.844;2023-07-20T01:17:37;5.40;;;2.30;;
62925;SDS011;55732;52.248;-0.844;2023-07-20T01:20:03;2.20;;;1.80;;
62925;SDS011;55732;52.248;-0.844;2023-07-20T01:33:46;3.20;;;2.00;;
62925;SDS011;55732;52.248;-0.844;2023-07-20T01:36:13;2.50;;;1.80;;
62925;SDS011;55732;52.248;-0.844;2023-07-20T01:38:41;4.00;;;2.10;;
62925;SDS011;55732;52.248;-0.844;2023-07-20T01:41:07;4.60;;;2.20;;
62925;SDS011;55732;52.248;-0.844;2023-07-20T01:43:33;2.70;;;2.00;;
62925;SDS011;55732;52.248;-0.844;2023-07-20T01:45:59;3.90;;;2.30;;
62925;SDS011;55732;52.248;-0.844;2023-07-20T01:48:24;5.70;;;2.10;;
62925;SDS011;55732;52.248;-0.844;2023-07-20T01:50:50;3.90;;;2.40;;
62925;SDS011;55732;52.248;-0.844;2023-07-20T01:53:15;4.40;;;3.10;;
62925;SDS011;55732;52.248;-0.844;2023-07-20T01:55:41;3.60;;;2.00;;
62925;SDS011;55732;52.248;-0.844;2023-07-20T01:58:06;4.60;;;2.20;;
62925;SDS011;55732;52.248;-0.844;2023-07-20T02:00:32;2.50;;;1.90;;
62925;SDS011;55732;52.248;-0.844;2023-07-20T02:02:58;4.90;;;2.30;;
62925;SDS011;55732;52.248;-0.844;2023-07-20T02:05:23;4.60;;;2.30;;
62925;SDS011;55732;52.248;-0.844;2023-07-20T02:07:49;3.70;;;2.10;;
62925;SDS011;55732;52.248;-0.844;2023-07-20T02:10:15;3.50;;;2.20;;
62925;SDS011;55732;52.248;-0.844;2023-07-20T02:12:41;2.90;;;2.30;;
62925;SDS011;55732;52.248;-0.844;2023-07-20T02:15:06;3.50;;;2.00;;
62925;SDS011;55732;52.248;-0.844;2023-07-20T02:17:33;3.80;;;2.40;;
62925;SDS011;55732;52.248;-0.844;2023-07-20T02:19:58;3.80;;;2.30;;
62925;SDS011;55732;52.248;-0.844;2023-07-20T02:22:24;3.50;;;2.50;;
62925;SDS011;55732;52.248;-0.844;2023-07-20T02:24:50;3.00;;;1.90;;
62925;SDS011;55732;52.248;-0.844;2023-07-20T02:27:15;3.40;;;2.30;;
62925;SDS011;55732;52.248;-0.844;2023-07-20T02:29:41;4.10;;;2.30;;
62925;SDS011;55732;52.248;-0.844;2023-07-20T02:32:07;6.40;;;2.50;;
62925;SDS011;55732;52.248;-0.844;2023-07-20T02:34:33;5.00;;;2.60;;
62925;SDS011;55732;52.248;-0.844;2023-07-20T02:36:59;4.10;;;2.50;;
62925;SDS011;55732;52.248;-0.844;2023-07-20T02:39:29;4.20;;;2.30;;
62925;SDS011;55732;52.248;-0.844;2023-07-20T02:41:54;3.10;;;2.20;;
62925;SDS011;55732;52.248;-0.844;2023-07-20T02:44:20;5.40;;;2.40;;
62925;SDS011;55732;52.248;-0.844;2023-07-20T02:46:45;2.80;;;2.20;;
62925;SDS011;55732;52.248;-0.844;2023-07-20T02:49:11;3.50;;;2.30;;
62925;SDS011;55732;52.248;-0.844;2023-07-20T02:51:36;4.30;;;2.30;;
62925;SDS011;55732;52.248;-0.844;2023-07-20T02:54:03;5.10;;;2.50;;
62925;SDS011;55732;52.248;-0.844;2023-07-20T02:56:28;4.00;;;2.50;;
62925;SDS011;55732;52.248;-0.844;2023-07-20T02:58:56;5.10;;;2.40;;
62925;SDS011;55732;52.248;-0.844;2023-07-20T03:01:22;4.20;;;2.50;;
62925;SDS011;55732;52.248;-0.844;2023-07-20T03:03:48;3.80;;;2.30;;
62925;SDS011;55732;52.248;-0.844;2023-07-20T03:06:13;4.30;;;2.40;;
62925;SDS011;55732;52.248;-0.844;2023-07-20T03:08:40;3.20;;;2.30;;
62925;SDS011;55732;52.248;-0.844;2023-07-20T03:11:07;2.90;;;2.60;;
62925;SDS011;55732;52.248;-0.844;2023-07-20T03:13:32;2.80;;;2.30;;
62925;SDS011;55732;52.248;-0.844;2023-07-20T03:15:58;4.00;;;2.50;;
62925;SDS011;55732;52.248;-0.844;2023-07-20T03:18:24;6.30;;;2.60;;
62925;SDS011;55732;52.248;-0.844;2023-07-20T03:20:49;6.40;;;2.80;;
62925;SDS011;55732;52.248;-0.844;2023-07-20T03:23:15;3.60;;;2.60;;
62925;SDS011;55732;52.248;-0.844;2023-07-20T03:25:41;6.10;;;2.80;;
62925;SDS011;55732;52.248;-0.844;2023-07-20T03:28:07;4.00;;;2.50;;
62925;SDS011;55732;52.248;-0.844;2023-07-20T03:30:32;5.60;;;2.80;;
62925;SDS011;55732;52.248;-0.844;2023-07-20T03:32:58;3.50;;;2.70;;
62925;SDS011;55732;52.248;-0.844;2023-07-20T03:35:23;5.30;;;2.50;;
62925;SDS011;55732;52.248;-0.844;2023-07-20T03:37:49;4.90;;;2.80;;
62925;SDS011;55732;52.248;-0.844;2023-07-20T03:40:14;4.60;;;2.80;;
62925;SDS011;55732;52.248;-0.844;2023-07-20T03:42:41;5.30;;;2.60;;
62925;SDS011;55732;52.248;-0.844;2023-07-20T03:45:07;6.00;;;2.70;;
62925;SDS011;55732;52.248;-0.844;2023-07-20T03:47:32;3.50;;;2.40;;
62925;SDS011;55732;52.248;-0.844;2023-07-20T03:49:58;3.80;;;2.50;;
62925;SDS011;55732;52.248;-0.844;2023-07-20T03:52:23;6.20;;;3.00;;
62925;SDS011;55732;52.248;-0.844;2023-07-20T03:54:49;5.70;;;2.70;;
62925;SDS011;55732;52.248;-0.844;2023-07-20T03:57:16;5.50;;;2.60;;
62925;SDS011;55732;52.248;-0.844;2023-07-20T03:59:44;3.50;;;2.70;;
62925;SDS011;55732;52.248;-0.844;2023-07-20T04:02:10;4.20;;;2.90;;
62925;SDS011;55732;52.248;-0.844;2023-07-20T04:04:36;3.30;;;2.50;;
62925;SDS011;55732;52.248;-0.844;2023-07-20T04:07:01;4.60;;;2.60;;
62925;SDS011;55732;52.248;-0.844;2023-07-20T04:09:26;4.10;;;3.30;;
62925;SDS011;55732;52.248;-0.844;2023-07-20T04:11:52;4.50;;;2.80;;
62925;SDS011;55732;52.248;-0.844;2023-07-20T04:14:17;6.00;;;2.80;;
62925;SDS011;55732;52.248;-0.844;2023-07-20T04:16:43;4.80;;;3.10;;
62925;SDS011;55732;52.248;-0.844;2023-07-20T04:19:08;3.60;;;3.00;;
62925;SDS011;55732;52.248;-0.844;2023-07-20T04:21:39;5.70;;;3.30;;
62925;SDS011;55732;52.248;-0.844;2023-07-20T04:24:08;3.90;;;2.70;;
62925;SDS011;55732;52.248;-0.844;2023-07-20T04:26:34;4.20;;;3.10;;
62925;SDS011;55732;52.248;-0.844;2023-07-20T04:29:00;7.70;;;3.40;;
62925;SDS011;55732;52.248;-0.844;2023-07-20T04:31:26;4.90;;;3.40;;
62925;SDS011;55732;52.248;-0.844;2023-07-20T04:33:51;6.40;;;3.50;;
62925;SDS011;55732;52.248;-0.844;2023-07-20T04:36:17;4.90;;;3.10;;
62925;SDS011;55732;52.248;-0.844;2023-07-20T04:38:44;4.80;;;3.30;;
62925;SDS011;55732;52.248;-0.844;2023-07-20T04:41:11;5.10;;;3.60;;
62925;SDS011;55732;52.248;-0.844;2023-07-20T04:43:40;6.90;;;3.60;;
62925;SDS011;55732;52.248;-0.844;2023-07-20T04:46:07;7.80;;;3.80;;
62925;SDS011;55732;52.248;-0.844;2023-07-20T04:48:32;6.70;;;3.90;;
62925;SDS011;55732;52.248;-0.844;2023-07-20T04:50:58;5.20;;;3.90;;
62925;SDS011;55732;52.248;-0.844;2023-07-20T04:53:23;5.40;;;4.00;;
62925;SDS011;55732;52.248;-0.844;2023-07-20T04:55:49;7.40;;;4.40;;
62925;SDS011;55732;52.248;-0.844;2023-07-20T04:58:17;7.20;;;4.10;;
62925;SDS011;55732;52.248;-0.844;2023-07-20T05:00:51;8.70;;;4.80;;
62925;SDS011;55732;52.248;-0.844;2023-07-20T05:03:17;5.80;;;4.50;;
62925;SDS011;55732;52.248;-0.844;2023-07-20T05:05:43;7.30;;;4.20;;
62925;SDS011;55732;52.248;-0.844;2023-07-20T05:08:08;7.60;;;4.70;;
62925;SDS011;55732;52.248;-0.844;2023-07-20T05:10:34;8.90;;;4.70;;
62925;SDS011;55732;52.248;-0.844;2023-07-20T05:12:59;6.40;;;3.70;;
62925;SDS011;55732;52.248;-0.844;2023-07-20T05:15:25;5.30;;;3.90;;
62925;SDS011;55732;52.248;-0.844;2023-07-20T05:17:51;9.30;;;4.40;;
62925;SDS011;55732;52.248;-0.844;2023-07-20T05:20:17;8.50;;;4.30;;
62925;SDS011;55732;52.248;-0.844;2023-07-20T05:22:42;7.00;;;3.90;;
62925;SDS011;55732;52.248;-0.844;2023-07-20T05:25:09;6.90;;;3.80;;
62925;SDS011;55732;52.248;-0.844;2023-07-20T05:27:38;5.10;;;4.30;;
62925;SDS011;55732;52.248;-0.844;2023-07-20T05:30:05;5.90;;;3.90;;
62925;SDS011;55732;52.248;-0.844;2023-07-20T05:32:32;5.90;;;4.20;;
62925;SDS011;55732;52.248;-0.844;2023-07-20T05:34:58;5.60;;;3.90;;
62925;SDS011;55732;52.248;-0.844;2023-07-20T05:37:23;8.70;;;3.90;;
62925;SDS011;55732;52.248;-0.844;2023-07-20T05:39:49;5.20;;;4.00;;
62925;SDS011;55732;52.248;-0.844;2023-07-20T05:42:14;6.20;;;4.00;;
62925;SDS011;55732;52.248;-0.844;2023-07-20T05:44:40;5.70;;;4.40;;
62925;SDS011;55732;52.248;-0.844;2023-07-20T05:47:06;6.90;;;4.10;;
62925;SDS011;55732;52.248;-0.844;2023-07-20T05:49:32;8.40;;;4.50;;
62925;SDS011;55732;52.248;-0.844;2023-07-20T05:51:57;6.50;;;4.30;;
62925;SDS011;55732;52.248;-0.844;2023-07-20T05:54:26;6.50;;;4.20;;
62925;SDS011;55732;52.248;-0.844;2023-07-20T05:56:52;6.60;;;4.60;;
62925;SDS011;55732;52.248;-0.844;2023-07-20T05:59:18;7.10;;;4.50;;
62925;SDS011;55732;52.248;-0.844;2023-07-20T06:01:48;6.50;;;4.60;;
62925;SDS011;55732;52.248;-0.844;2023-07-20T06:04:14;5.60;;;4.40;;
62925;SDS011;55732;52.248;-0.844;2023-07-20T06:06:40;6.50;;;4.60;;
62925;SDS011;55732;52.248;-0.844;2023-07-20T06:09:06;8.40;;;4.60;;
62925;SDS011;55732;52.248;-0.844;2023-07-20T06:11:35;7.50;;;4.20;;
62925;SDS011;55732;52.248;-0.844;2023-07-20T06:14:01;6.80;;;4.00;;
62925;SDS011;55732;52.248;-0.844;2023-07-20T06:16:26;6.60;;;4.90;;
62925;SDS011;55732;52.248;-0.844;2023-07-20T06:18:52;8.40;;;4.30;;
62925;SDS011;55732;52.248;-0.844;2023-07-20T06:21:17;6.60;;;4.10;;
62925;SDS011;55732;52.248;-0.844;2023-07-20T06:23:42;8.80;;;4.40;;
62925;SDS011;55732;52.248;-0.844;2023-07-20T06:26:08;6.60;;;5.00;;
62925;SDS011;55732;52.248;-0.844;2023-07-20T06:28:33;6.00;;;4.40;;
62925;SDS011;55732;52.248;-0.844;2023-07-20T06:30:59;5.80;;;4.10;;
62925;SDS011;55732;52.248;-0.844;2023-07-20T06:33:26;9.10;;;4.50;;
62925;SDS011;55732;52.248;-0.844;2023-07-20T06:35:51;6.80;;;4.50;;
62925;SDS011;55732;52.248;-0.844;2023-07-20T06:38:20;7.60;;;4.40;;
62925;SDS011;55732;52.248;-0.844;2023-07-20T06:40:46;4.50;;;3.90;;
62925;SDS011;55732;52.248;-0.844;2023-07-20T06:43:12;6.40;;;3.90;;
62925;SDS011;55732;52.248;-0.844;2023-07-20T06:45:37;6.30;;;3.90;;
62925;SDS011;55732;52.248;-0.844;2023-07-20T06:48:03;5.60;;;4.00;;
62925;SDS011;55732;52.248;-0.844;2023-07-20T06:50:28;5.00;;;4.00;;
62925;SDS011;55732;52.248;-0.844;2023-07-20T06:52:54;7.80;;;3.80;;
62925;SDS011;55732;52.248;-0.844;2023-07-20T06:55:19;9.20;;;4.30;;
62925;SDS011;55732;52.248;-0.844;2023-07-20T06:57:45;7.80;;;4.00;;
62925;SDS011;55732;52.248;-0.844;2023-07-20T07:00:10;7.10;;;3.90;;
62925;SDS011;55732;52.248;-0.844;2023-07-20T07:02:36;5.70;;;3.60;;
62925;SDS011;55732;52.248;-0.844;2023-07-20T07:05:01;7.00;;;4.10;;
62925;SDS011;55732;52.248;-0.844;2023-07-20T07:07:27;6.10;;;3.90;;
62925;SDS011;55732;52.248;-0.844;2023-07-20T07:09:52;6.50;;;4.10;;
62925;SDS011;55732;52.248;-0.844;2023-07-20T07:12:17;5.10;;;3.90;;
62925;SDS011;55732;52.248;-0.844;2023-07-20T07:14:43;7.00;;;4.10;;
62925;SDS011;55732;52.248;-0.844;2023-07-20T07:17:08;9.00;;;4.10;;
62925;SDS011;55732;52.248;-0.844;2023-07-20T07:19:33;6.30;;;4.00;;
62925;SDS011;55732;52.248;-0.844;2023-07-20T07:21:59;6.30;;;3.70;;
62925;SDS011;55732;52.248;-0.844;2023-07-20T07:24:24;5.50;;;3.90;;
62925;SDS011;55732;52.248;-0.844;2023-07-20T07:26:49;7.30;;;3.70;;
62925;SDS011;55732;52.248;-0.844;2023-07-20T07:29:15;3.80;;;3.30;;
62925;SDS011;55732;52.248;-0.844;2023-07-20T07:31:40;5.80;;;3.60;;
62925;SDS011;55732;52.248;-0.844;2023-07-20T07:34:06;4.60;;;3.30;;
62925;SDS011;55732;52.248;-0.844;2023-07-20T07:36:32;6.50;;;3.50;;
62925;SDS011;55732;52.248;-0.844;2023-07-20T07:38:58;7.60;;;3.60;;
62925;SDS011;55732;52.248;-0.844;2023-07-20T07:41:23;3.90;;;3.30;;
62925;SDS011;55732;52.248;-0.844;2023-07-20T07:43:49;5.10;;;3.30;;
62925;SDS011;55732;52.248;-0.844;2023-07-20T07:46:14;5.50;;;3.60;;
62925;SDS011;55732;52.248;-0.844;2023-07-20T07:48:41;4.20;;;3.50;;
62925;SDS011;55732;52.248;-0.844;2023-07-20T07:51:07;8.60;;;2.80;;
62925;SDS011;55732;52.248;-0.844;2023-07-20T07:53:32;5.20;;;2.60;;
62925;SDS011;55732;52.248;-0.844;2023-07-20T07:55:58;4.40;;;2.50;;
62925;SDS011;55732;52.248;-0.844;2023-07-20T07:58:24;3.90;;;2.20;;
62925;SDS011;55732;52.248;-0.844;2023-07-20T08:00:49;3.70;;;2.20;;
62925;SDS011;55732;52.248;-0.844;2023-07-20T08:03:15;6.10;;;2.40;;
62925;SDS011;55732;52.248;-0.844;2023-07-20T08:05:40;6.30;;;2.20;;
62925;SDS011;55732;52.248;-0.844;2023-07-20T08:08:06;5.50;;;2.30;;
62925;SDS011;55732;52.248;-0.844;2023-07-20T08:10:31;5.50;;;2.40;;
62925;SDS011;55732;52.248;-0.844;2023-07-20T08:12:57;3.10;;;2.10;;
62925;SDS011;55732;52.248;-0.844;2023-07-20T08:15:22;5.80;;;2.20;;
62925;SDS011;55732;52.248;-0.844;2023-07-20T08:17:48;4.10;;;1.90;;
62925;SDS011;55732;52.248;-0.844;2023-07-20T08:20:14;4.30;;;1.80;;
62925;SDS011;55732;52.248;-0.844;2023-07-20T08:22:41;3.20;;;1.60;;
62925;SDS011;55732;52.248;-0.844;2023-07-20T08:25:07;5.30;;;2.00;;
62925;SDS011;55732;52.248;-0.844;2023-07-20T08:27:33;2.40;;;1.40;;
62925;SDS011;55732;52.248;-0.844;2023-07-20T08:29:59;3.80;;;1.70;;
62925;SDS011;55732;52.248;-0.844;2023-07-20T08:32:25;1.60;;;1.50;;
62925;SDS011;55732;52.248;-0.844;2023-07-20T08:34:51;2.40;;;1.60;;
62925;SDS011;55732;52.248;-0.844;2023-07-20T08:37:17;3.20;;;1.60;;
62925;SDS011;55732;52.248;-0.844;2023-07-20T08:39:42;2.40;;;1.70;;
62925;SDS011;55732;52.248;-0.844;2023-07-20T08:42:08;1.60;;;1.40;;
62925;SDS011;55732;52.248;-0.844;2023-07-20T08:44:38;2.70;;;1.80;;
62925;SDS011;55732;52.248;-0.844;2023-07-20T08:47:05;2.50;;;1.60;;
62925;SDS011;55732;52.248;-0.844;2023-07-20T08:49:32;3.20;;;1.60;;
62925;SDS011;55732;52.248;-0.844;2023-07-20T08:54:26;1.80;;;1.50;;
62925;SDS011;55732;52.248;-0.844;2023-07-20T08:56:55;2.30;;;1.40;;
62925;SDS011;55732;52.248;-0.844;2023-07-20T08:59:22;2.80;;;1.40;;
62925;SDS011;55732;52.248;-0.844;2023-07-20T09:01:50;1.70;;;1.30;;
62925;SDS011;55732;52.248;-0.844;2023-07-20T09:04:19;1.30;;;1.20;;
62925;SDS011;55732;52.248;-0.844;2023-07-20T09:06:44;2.00;;;1.40;;
62925;SDS011;55732;52.248;-0.844;2023-07-20T09:09:09;1.40;;;1.30;;
62925;SDS011;55732;52.248;-0.844;2023-07-20T09:11:36;1.60;;;1.10;;
62925;SDS011;55732;52.248;-0.844;2023-07-20T09:14:03;1.90;;;1.30;;
62925;SDS011;55732;52.248;-0.844;2023-07-20T09:16:32;2.00;;;1.20;;
62925;SDS011;55732;52.248;-0.844;2023-07-20T09:19:11;1.90;;;1.20;;
62925;SDS011;55732;52.248;-0.844;2023-07-20T09:24:02;2.10;;;1.50;;
62925;SDS011;55732;52.248;-0.844;2023-07-20T09:26:28;1.40;;;1.30;;
62925;SDS011;55732;52.248;-0.844;2023-07-20T09:28:53;1.40;;;1.20;;
62925;SDS011;55732;52.248;-0.844;2023-07-20T09:31:20;1.80;;;1.30;;
62925;SDS011;55732;52.248;-0.844;2023-07-20T09:33:47;1.90;;;1.40;;
62925;SDS011;55732;52.248;-0.844;2023-07-20T09:36:13;1.70;;;1.20;;
62925;SDS011;55732;52.248;-0.844;2023-07-20T09:38:42;1.40;;;1.30;;
62925;SDS011;55732;52.248;-0.844;2023-07-20T09:41:08;2.00;;;1.20;;
62925;SDS011;55732;52.248;-0.844;2023-07-20T09:43:38;2.30;;;1.20;;
62925;SDS011;55732;52.248;-0.844;2023-07-20T09:46:05;1.60;;;1.20;;
62925;SDS011;55732;52.248;-0.844;2023-07-20T09:48:30;4.40;;;1.40;;
62925;SDS011;55732;52.248;-0.844;2023-07-20T09:50:56;1.50;;;1.40;;
62925;SDS011;55732;52.248;-0.844;2023-07-20T09:53:21;1.80;;;1.40;;
62925;SDS011;55732;52.248;-0.844;2023-07-20T09:55:51;1.20;;;1.10;;
62925;SDS011;55732;52.248;-0.844;2023-07-20T09:58:18;1.40;;;1.30;;
62925;SDS011;55732;52.248;-0.844;2023-07-20T10:00:44;1.90;;;1.30;;
62925;SDS011;55732;52.248;-0.844;2023-07-20T10:03:22;1.90;;;1.40;;
62925;SDS011;55732;52.248;-0.844;2023-07-20T10:05:54;4.60;;;1.60;;
62925;SDS011;55732;52.248;-0.844;2023-07-20T10:08:29;4.10;;;1.50;;
62925;SDS011;55732;52.248;-0.844;2023-07-20T10:10:56;4.40;;;1.50;;
62925;SDS011;55732;52.248;-0.844;2023-07-20T10:13:28;2.90;;;1.50;;
62925;SDS011;55732;52.248;-0.844;2023-07-20T10:15:59;2.60;;;1.60;;
62925;SDS011;55732;52.248;-0.844;2023-07-20T10:21:14;1.80;;;1.40;;
62925;SDS011;55732;52.248;-0.844;2023-07-20T10:23:42;6.40;;;1.70;;
62925;SDS011;55732;52.248;-0.844;2023-07-20T10:28:35;1.30;;;1.20;;
62925;SDS011;55732;52.248;-0.844;2023-07-20T10:31:02;2.30;;;1.30;;
62925;SDS011;55732;52.248;-0.844;2023-07-20T10:33:28;2.40;;;1.60;;
62925;SDS011;55732;52.248;-0.844;2023-07-20T10:35:54;3.50;;;1.40;;
62925;SDS011;55732;52.248;-0.844;2023-07-20T10:38:37;6.10;;;1.60;;
62925;SDS011;55732;52.248;-0.844;2023-07-20T10:41:05;1.90;;;1.60;;
62925;SDS011;55732;52.248;-0.844;2023-07-20T10:43:44;4.30;;;1.70;;
62925;SDS011;55732;52.248;-0.844;2023-07-20T10:46:11;2.50;;;1.60;;
62925;SDS011;55732;52.248;-0.844;2023-07-20T10:51:29;1.90;;;1.50;;
62925;SDS011;55732;52.248;-0.844;2023-07-20T10:53:55;2.80;;;1.70;;
62925;SDS011;55732;52.248;-0.844;2023-07-20T10:56:24;2.20;;;1.60;;
62925;SDS011;55732;52.248;-0.844;2023-07-20T10:58:59;2.50;;;1.40;;
62925;SDS011;55732;52.248;-0.844;2023-07-20T11:01:29;1.60;;;1.50;;
62925;SDS011;55732;52.248;-0.844;2023-07-20T11:03:58;2.80;;;1.50;;
62925;SDS011;55732;52.248;-0.844;2023-07-20T11:11:44;1.50;;;1.50;;
62925;SDS011;55732;52.248;-0.844;2023-07-20T11:14:24;1.80;;;1.50;;
62925;SDS011;55732;52.248;-0.844;2023-07-20T11:16:51;5.00;;;1.80;;
62925;SDS011;55732;52.248;-0.844;2023-07-20T11:19:21;2.00;;;1.60;;
62925;SDS011;55732;52.248;-0.844;2023-07-20T11:21:52;1.80;;;1.70;;
62925;SDS011;55732;52.248;-0.844;2023-07-20T11:24:22;1.50;;;1.40;;
62925;SDS011;55732;52.248;-0.844;2023-07-20T11:26:49;1.90;;;1.70;;
62925;SDS011;55732;52.248;-0.844;2023-07-20T11:29:16;1.70;;;1.40;;
62925;SDS011;55732;52.248;-0.844;2023-07-20T11:31:44;2.70;;;1.60;;
62925;SDS011;55732;52.248;-0.844;2023-07-20T11:36:42;2.10;;;1.60;;
62925;SDS011;55732;52.248;-0.844;2023-07-20T11:41:38;1.90;;;1.50;;
62925;SDS011;55732;52.248;-0.844;2023-07-20T11:44:05;1.90;;;1.50;;
62925;SDS011;55732;52.248;-0.844;2023-07-20T11:46:32;1.90;;;1.50;;
62925;SDS011;55732;52.248;-0.844;2023-07-20T11:48:59;1.70;;;1.50;;
62925;SDS011;55732;52.248;-0.844;2023-07-20T11:51:28;4.40;;;1.80;;
62925;SDS011;55732;52.248;-0.844;2023-07-20T11:53:55;1.60;;;1.50;;
62925;SDS011;55732;52.248;-0.844;2023-07-20T11:56:22;1.50;;;1.40;;
62925;SDS011;55732;52.248;-0.844;2023-07-20T11:58:48;2.70;;;1.70;;
62925;SDS011;55732;52.248;-0.844;2023-07-20T12:01:13;3.00;;;1.50;;
62925;SDS011;55732;52.248;-0.844;2023-07-20T12:03:41;2.50;;;1.60;;
62925;SDS011;55732;52.248;-0.844;2023-07-20T12:06:08;2.10;;;1.70;;
62925;SDS011;55732;52.248;-0.844;2023-07-20T12:08:34;2.60;;;1.80;;
62925;SDS011;55732;52.248;-0.844;2023-07-20T12:10:59;1.70;;;1.50;;
62925;SDS011;55732;52.248;-0.844;2023-07-20T12:13:38;1.60;;;1.40;;
62925;SDS011;55732;52.248;-0.844;2023-07-20T12:16:09;1.90;;;1.60;;
62925;SDS011;55732;52.248;-0.844;2023-07-20T12:18:36;1.90;;;1.60;;
62925;SDS011;55732;52.248;-0.844;2023-07-20T12:21:01;4.60;;;1.70;;
62925;SDS011;55732;52.248;-0.844;2023-07-20T12:23:34;4.00;;;1.90;;
62925;SDS011;55732;52.248;-0.844;2023-07-20T12:26:01;3.00;;;1.90;;
62925;SDS011;55732;52.248;-0.844;2023-07-20T12:28:26;1.90;;;1.70;;
62925;SDS011;55732;52.248;-0.844;2023-07-20T12:30:51;1.70;;;1.60;;
62925;SDS011;55732;52.248;-0.844;2023-07-20T12:33:21;3.30;;;1.90;;
62925;SDS011;55732;52.248;-0.844;2023-07-20T12:35:48;2.90;;;1.90;;
62925;SDS011;55732;52.248;-0.844;2023-07-20T12:38:14;2.00;;;1.80;;
62925;SDS011;55732;52.248;-0.844;2023-07-20T12:40:41;1.90;;;1.70;;
62925;SDS011;55732;52.248;-0.844;2023-07-20T12:43:07;3.50;;;2.00;;
62925;SDS011;55732;52.248;-0.844;2023-07-20T12:45:33;12.20;;;2.00;;
62925;SDS011;55732;52.248;-0.844;2023-07-20T12:47:59;2.30;;;1.70;;
62925;SDS011;55732;52.248;-0.844;2023-07-20T12:50:24;6.00;;;1.70;;
62925;SDS011;55732;52.248;-0.844;2023-07-20T12:52:50;2.60;;;1.80;;
62925;SDS011;55732;52.248;-0.844;2023-07-20T12:55:18;2.30;;;1.70;;
62925;SDS011;55732;52.248;-0.844;2023-07-20T12:57:43;2.50;;;1.70;;
62925;SDS011;55732;52.248;-0.844;2023-07-20T13:00:09;2.80;;;1.60;;
62925;SDS011;55732;52.248;-0.844;2023-07-20T13:02:37;3.00;;;1.70;;
62925;SDS011;55732;52.248;-0.844;2023-07-20T13:05:03;2.50;;;2.00;;
62925;SDS011;55732;52.248;-0.844;2023-07-20T13:07:32;2.40;;;1.70;;
62925;SDS011;55732;52.248;-0.844;2023-07-20T13:09:59;2.90;;;1.90;;
62925;SDS011;55732;52.248;-0.844;2023-07-20T13:12:26;6.80;;;2.00;;
62925;SDS011;55732;52.248;-0.844;2023-07-20T13:14:52;6.00;;;1.80;;
62925;SDS011;55732;52.248;-0.844;2023-07-20T13:17:18;2.70;;;1.80;;
62925;SDS011;55732;52.248;-0.844;2023-07-20T13:19:43;2.30;;;1.70;;
62925;SDS011;55732;52.248;-0.844;2023-07-20T13:22:08;1.70;;;1.40;;
62925;SDS011;55732;52.248;-0.844;2023-07-20T13:24:34;2.50;;;1.90;;
62925;SDS011;55732;52.248;-0.844;2023-07-20T13:26:59;4.40;;;2.00;;
62925;SDS011;55732;52.248;-0.844;2023-07-20T13:29:24;4.40;;;1.70;;
62925;SDS011;55732;52.248;-0.844;2023-07-20T13:31:50;4.20;;;1.90;;
62925;SDS011;55732;52.248;-0.844;2023-07-20T13:34:15;3.90;;;2.00;;
62925;SDS011;55732;52.248;-0.844;2023-07-20T13:36:40;1.90;;;1.70;;
62925;SDS011;55732;52.248;-0.844;2023-07-20T13:39:06;2.40;;;1.90;;
62925;SDS011;55732;52.248;-0.844;2023-07-20T13:41:32;2.80;;;1.60;;
62925;SDS011;55732;52.248;-0.844;2023-07-20T13:43:58;4.30;;;2.30;;
62925;SDS011;55732;52.248;-0.844;2023-07-20T13:46:23;2.50;;;2.00;;
62925;SDS011;55732;52.248;-0.844;2023-07-20T13:48:49;2.40;;;1.80;;
62925;SDS011;55732;52.248;-0.844;2023-07-20T13:51:14;2.40;;;2.00;;
62925;SDS011;55732;52.248;-0.844;2023-07-20T13:53:39;2.40;;;1.90;;
62925;SDS011;55732;52.248;-0.844;2023-07-20T13:56:05;1.90;;;1.80;;
62925;SDS011;55732;52.248;-0.844;2023-07-20T13:58:31;3.50;;;1.80;;
62925;SDS011;55732;52.248;-0.844;2023-07-20T14:00:57;3.50;;;2.00;;
62925;SDS011;55732;52.248;-0.844;2023-07-20T14:03:23;2.60;;;1.80;;
62925;SDS011;55732;52.248;-0.844;2023-07-20T14:05:49;4.00;;;2.40;;
62925;SDS011;55732;52.248;-0.844;2023-07-20T14:08:15;3.50;;;2.10;;
62925;SDS011;55732;52.248;-0.844;2023-07-20T14:10:40;3.20;;;1.80;;
62925;SDS011;55732;52.248;-0.844;2023-07-20T14:13:06;3.50;;;1.90;;
62925;SDS011;55732;52.248;-0.844;2023-07-20T14:15:31;5.30;;;1.90;;
62925;SDS011;55732;52.248;-0.844;2023-07-20T14:17:56;2.60;;;2.20;;
62925;SDS011;55732;52.248;-0.844;2023-07-20T14:20:22;2.10;;;1.90;;
62925;SDS011;55732;52.248;-0.844;2023-07-20T14:22:47;2.30;;;2.10;;
62925;SDS011;55732;52.248;-0.844;2023-07-20T14:25:13;2.60;;;1.80;;
62925;SDS011;55732;52.248;-0.844;2023-07-20T14:27:38;3.40;;;2.10;;
62925;SDS011;55732;52.248;-0.844;2023-07-20T14:30:04;4.30;;;2.10;;
62925;SDS011;55732;52.248;-0.844;2023-07-20T14:32:31;6.30;;;2.20;;
62925;SDS011;55732;52.248;-0.844;2023-07-20T14:34:58;3.80;;;1.90;;
62925;SDS011;55732;52.248;-0.844;2023-07-20T14:37:23;3.00;;;1.90;;
62925;SDS011;55732;52.248;-0.844;2023-07-20T14:39:48;2.70;;;2.00;;
62925;SDS011;55732;52.248;-0.844;2023-07-20T14:42:14;3.40;;;2.10;;
62925;SDS011;55732;52.248;-0.844;2023-07-20T14:44:39;2.80;;;2.10;;
62925;SDS011;55732;52.248;-0.844;2023-07-20T14:47:04;3.60;;;1.90;;
62925;SDS011;55732;52.248;-0.844;2023-07-20T14:49:30;5.60;;;2.20;;
62925;SDS011;55732;52.248;-0.844;2023-07-20T14:51:55;2.90;;;2.10;;
62925;SDS011;55732;52.248;-0.844;2023-07-20T14:54:20;2.20;;;1.90;;
62925;SDS011;55732;52.248;-0.844;2023-07-20T14:56:49;3.10;;;2.00;;
62925;SDS011;55732;52.248;-0.844;2023-07-20T14:59:17;3.90;;;2.40;;
62925;SDS011;55732;52.248;-0.844;2023-07-20T15:01:43;3.00;;;2.00;;
62925;SDS011;55732;52.248;-0.844;2023-07-20T15:04:10;6.10;;;2.40;;
62925;SDS011;55732;52.248;-0.844;2023-07-20T15:06:36;3.10;;;2.10;;